Time;durP1;ratioP1;P1;durP2;ratioP2;P2;SDS_P1;SDS_P2;PMS_P1;PMS_P2;Temp;Humidity;BMP_temperature;BMP_pressure;BME280_temperature;BME280_humidity;BME280_pressure;Samples;Min_cycle;Max_cycle;Signal;HPM_P1;HPM_P2
2023/12/31 00:00:58;;;;;;;4.93;1.75;;;6.50;99.90;;;;;;5065278;28;20028;-65
2023/12/31 00:03:23;;;;;;;4.35;1.63;;;6.40;99.90;;;;;;5069211;28;20101;-64
2023/12/31 00:05:49;;;;;;;3.47;1.25;;;6.50;99.90;;;;;;5067572;28;20126;-64
2023/12/31 00:08:15;;;;;;;2.55;1.45;;;6.50;99.90;;;;;;5069227;28;20116;-66
2023/12/31 00:10:40;;;;;;;4.15;1.30;;;6.50;99.90;;;;;;5068756;28;20035;-65
2023/12/31 00:13:06;;;;;;;2.72;1.35;;;6.40;99.90;;;;;;5068295;28;20041;-65
2023/12/31 00:15:32;;;;;;;2.17;1.30;;;6.50;99.90;;;;;;5067470;28;20092;-67
2023/12/31 00:17:58;;;;;;;5.15;1.30;;;6.50;99.90;;;;;;5054571;28;20041;-63
2023/12/31 00:20:23;;;;;;;2.45;1.23;;;6.50;99.90;;;;;;5052487;28;20532;-64
2023/12/31 00:22:49;;;;;;;3.35;1.40;;;6.50;99.90;;;;;;5053701;28;20043;-63
2023/12/31 00:25:15;;;;;;;2.72;1.80;;;6.50;99.90;;;;;;5058042;28;20044;-64
2023/12/31 00:27:41;;;;;;;2.58;1.35;;;6.50;99.90;;;;;;5058114;28;20044;-64
2023/12/31 00:30:07;;;;;;;1.30;0.98;;;6.50;99.90;;;;;;5057917;28;20036;-64
2023/12/31 00:32:33;;;;;;;5.38;1.63;;;6.50;99.90;;;;;;5053788;28;20119;-63
2023/12/31 00:34:59;;;;;;;7.65;1.40;;;6.50;99.90;;;;;;5054025;28;20552;-63
2023/12/31 00:37:25;;;;;;;2.88;1.05;;;6.50;99.90;;;;;;5056638;28;20063;-65
2023/12/31 00:39:50;;;;;;;2.58;1.15;;;6.60;99.90;;;;;;5053809;28;20117;-64
2023/12/31 00:42:16;;;;;;;;;;;6.60;99.90;;;;;;5051227;28;20037;-64
2023/12/31 00:44:41;;;;;;;1.63;1.05;;;6.60;99.90;;;;;;5056601;28;20004;-64
2023/12/31 00:47:07;;;;;;;4.30;1.60;;;6.60;99.90;;;;;;5054229;28;20870;-64
2023/12/31 00:49:32;;;;;;;4.40;1.30;;;6.60;99.90;;;;;;5048365;28;20045;-64
2023/12/31 00:51:58;;;;;;;3.13;1.42;;;6.60;99.90;;;;;;5054291;28;20040;-64
2023/12/31 00:54:23;;;;;;;;;;;6.60;99.90;;;;;;5052942;28;20045;-64
2023/12/31 00:56:49;;;;;;;1.55;1.02;;;6.70;99.90;;;;;;5052742;28;20350;-63
2023/12/31 00:59:14;;;;;;;1.60;1.13;;;6.70;99.90;;;;;;5053791;28;20556;-63
2023/12/31 01:01:40;;;;;;;2.67;1.00;;;6.70;99.90;;;;;;5052631;28;20115;-64
2023/12/31 01:04:06;;;;;;;;;;;6.70;99.90;;;;;;5051786;28;20044;-65
2023/12/31 01:06:31;;;;;;;1.88;1.10;;;6.70;99.90;;;;;;5055939;28;19943;-64
2023/12/31 01:08:59;;;;;;;3.08;1.20;;;6.70;99.90;;;;;;5060898;28;20518;-64
2023/12/31 01:11:25;;;;;;;4.97;1.33;;;6.70;99.90;;;;;;5059833;28;20051;-64
2023/12/31 01:13:50;;;;;;;3.30;1.17;;;6.80;99.90;;;;;;5061068;28;20049;-64
2023/12/31 01:16:16;;;;;;;6.00;1.40;;;6.80;99.90;;;;;;5059326;28;20037;-64
2023/12/31 01:18:42;;;;;;;2.17;1.27;;;6.80;99.90;;;;;;5064518;28;20065;-64
2023/12/31 01:21:08;;;;;;;2.95;1.73;;;6.80;99.90;;;;;;5055465;28;20063;-64
2023/12/31 01:23:33;;;;;;;3.30;1.63;;;6.70;99.90;;;;;;5061082;28;20059;-64
2023/12/31 01:25:59;;;;;;;4.45;1.58;;;6.70;99.90;;;;;;5058483;28;20496;-64
2023/12/31 01:28:24;;;;;;;;;;;6.70;99.90;;;;;;5054236;28;20080;-64
2023/12/31 01:30:50;;;;;;;3.45;1.55;;;6.60;99.90;;;;;;5055874;28;19956;-64
2023/12/31 01:33:15;;;;;;;3.50;1.33;;;6.60;99.90;;;;;;5060711;28;20040;-64
2023/12/31 01:35:41;;;;;;;;;;;6.60;99.90;;;;;;5051694;28;20067;-63
2023/12/31 01:38:06;;;;;;;5.45;1.73;;;6.60;99.90;;;;;;5051327;28;20019;-64
2023/12/31 01:40:32;;;;;;;8.07;2.50;;;6.60;99.90;;;;;;5057091;28;20071;-64
2023/12/31 01:42:57;;;;;;;;;;;6.60;99.90;;;;;;5059824;28;20043;-65
2023/12/31 01:45:23;;;;;;;3.75;1.75;;;6.60;99.90;;;;;;5065008;28;19920;-65
2023/12/31 01:47:50;;;;;;;3.67;1.75;;;6.50;99.90;;;;;;5052967;28;20050;-62
2023/12/31 01:50:18;;;;;;;4.78;1.80;;;6.50;99.90;;;;;;5058835;28;20459;-63
2023/12/31 01:52:44;;;;;;;5.68;2.22;;;6.50;99.90;;;;;;5055719;28;20040;-66
2023/12/31 01:55:10;;;;;;;6.57;2.35;;;6.50;99.90;;;;;;5060862;28;20439;-66
2023/12/31 01:57:37;;;;;;;3.83;2.50;;;6.60;99.90;;;;;;5056923;28;20515;-65
2023/12/31 02:00:06;;;;;;;3.38;2.33;;;6.50;99.90;;;;;;5053552;28;20147;-64
2023/12/31 02:02:31;;;;;;;4.95;2.45;;;6.50;99.90;;;;;;5054384;28;20534;-65
2023/12/31 02:04:57;;;;;;;6.90;2.47;;;6.50;99.90;;;;;;5054956;28;20124;-64
2023/12/31 02:07:23;;;;;;;4.32;2.15;;;6.50;99.90;;;;;;5053329;28;20042;-64
2023/12/31 02:09:50;;;;;;;4.15;2.00;;;6.50;99.90;;;;;;5055512;28;20123;-63
2023/12/31 02:12:16;;;;;;;4.70;2.47;;;6.50;99.90;;;;;;5061584;28;20136;-63
2023/12/31 02:14:41;;;;;;;4.78;2.40;;;6.50;99.90;;;;;;5056250;28;20815;-63
2023/12/31 02:17:07;;;;;;;4.55;2.22;;;6.40;99.90;;;;;;5054119;28;20633;-64
2023/12/31 02:19:33;;;;;;;6.97;2.45;;;6.40;99.90;;;;;;5052511;28;20127;-63
2023/12/31 02:21:59;;;;;;;4.90;2.58;;;6.30;99.90;;;;;;5055373;28;20436;-63
2023/12/31 02:24:31;;;;;;;4.05;2.13;;;6.30;99.90;;;;;;5068177;28;20067;-64
2023/12/31 02:26:57;;;;;;;3.92;2.00;;;6.20;99.90;;;;;;5057590;28;20047;-64
2023/12/31 02:29:23;;;;;;;5.00;2.40;;;6.20;99.90;;;;;;5057321;28;20045;-64
2023/12/31 02:31:49;;;;;;;3.90;2.35;;;6.20;99.90;;;;;;5057249;28;20052;-64
2023/12/31 02:34:15;;;;;;;7.72;2.30;;;6.20;99.90;;;;;;5058909;28;20048;-64
2023/12/31 02:36:41;;;;;;;3.55;2.10;;;6.20;99.90;;;;;;5052904;28;20037;-64
2023/12/31 02:39:06;;;;;;;3.78;2.92;;;6.10;99.90;;;;;;5053041;28;20397;-63
2023/12/31 02:41:32;;;;;;;5.35;2.90;;;6.10;99.90;;;;;;5057172;28;20048;-64
2023/12/31 02:43:58;;;;;;;4.72;3.25;;;6.10;99.90;;;;;;5054744;28;20043;-64
2023/12/31 02:46:23;;;;;;;7.97;3.63;;;6.10;99.90;;;;;;5053348;28;20500;-64
2023/12/31 02:48:49;;;;;;;6.18;3.70;;;6.00;99.90;;;;;;5058602;28;20386;-65
2023/12/31 02:51:14;;;;;;;5.93;3.88;;;6.00;99.90;;;;;;5052479;28;20045;-65
2023/12/31 02:53:40;;;;;;;7.03;4.22;;;6.00;99.90;;;;;;5059871;28;20044;-64
2023/12/31 02:56:05;;;;;;;9.63;4.78;;;6.00;99.90;;;;;;5053957;28;20098;-64
2023/12/31 02:58:31;;;;;;;9.05;4.68;;;6.00;99.90;;;;;;5052028;28;20037;-64
2023/12/31 03:00:59;;;;;;;9.90;4.70;;;6.00;99.90;;;;;;5050231;28;20064;-64
2023/12/31 03:03:24;;;;;;;7.63;4.13;;;6.10;99.90;;;;;;5054067;28;20060;-64
2023/12/31 03:05:50;;;;;;;4.88;3.80;;;6.00;99.90;;;;;;5057130;28;20684;-64
2023/12/31 03:08:15;;;;;;;7.20;4.75;;;6.00;99.90;;;;;;5054535;28;21434;-65
2023/12/31 03:10:41;;;;;;;10.60;4.30;;;6.00;99.90;;;;;;5056328;28;20048;-65
2023/12/31 03:13:07;;;;;;;7.25;3.80;;;6.10;99.90;;;;;;5049576;28;20524;-65
2023/12/31 03:15:32;;;;;;;8.27;5.05;;;6.10;99.90;;;;;;5051717;28;20048;-65
2023/12/31 03:17:58;;;;;;;7.60;5.13;;;6.10;99.90;;;;;;5053436;28;20096;-63
2023/12/31 03:20:23;;;;;;;;;;;6.20;99.90;;;;;;5052252;28;20075;-64
2023/12/31 03:22:49;;;;;;;8.40;5.15;;;6.20;99.90;;;;;;5048764;28;19920;-65
2023/12/31 03:25:15;;;;;;;7.78;4.50;;;6.20;99.90;;;;;;5055854;28;20126;-64
2023/12/31 03:27:40;;;;;;;6.68;4.47;;;6.20;99.90;;;;;;5058563;28;20040;-65
2023/12/31 03:30:07;;;;;;;7.18;4.25;;;6.20;99.90;;;;;;5051664;28;20059;-65
2023/12/31 03:32:33;;;;;;;8.57;5.30;;;6.20;99.90;;;;;;5044660;28;20069;-65
2023/12/31 03:34:58;;;;;;;6.68;4.63;;;6.30;99.90;;;;;;5045971;28;20029;-65
2023/12/31 03:37:24;;;;;;;8.98;5.00;;;6.30;99.90;;;;;;5043892;28;20128;-66
2023/12/31 03:39:51;;;;;;;7.07;4.35;;;6.20;99.90;;;;;;5039850;28;20029;-65
2023/12/31 03:42:18;;;;;;;6.45;4.60;;;6.20;99.90;;;;;;5045490;28;20047;-63
2023/12/31 03:44:43;;;;;;;8.30;5.32;;;6.30;99.90;;;;;;5042340;28;20043;-66
2023/12/31 03:47:09;;;;;;;9.57;6.40;;;6.30;99.90;;;;;;5045616;28;20044;-65
2023/12/31 03:49:34;;;;;;;10.48;7.18;;;6.20;99.90;;;;;;5041837;28;20041;-65
2023/12/31 03:52:00;;;;;;;9.73;5.45;;;6.20;99.90;;;;;;5041153;28;20442;-64
2023/12/31 03:54:25;;;;;;;;;;;6.20;99.90;;;;;;5047397;28;20045;-64
2023/12/31 03:56:51;;;;;;;11.20;6.65;;;6.10;99.90;;;;;;5046842;28;19921;-65
2023/12/31 03:59:16;;;;;;;11.18;6.30;;;6.20;99.90;;;;;;5046582;28;20037;-64
2023/12/31 04:01:45;;;;;;;9.48;5.65;;;6.10;99.90;;;;;;5045540;28;20037;-65
2023/12/31 04:04:15;;;;;;;12.40;6.80;;;6.20;99.90;;;;;;5044786;28;20037;-65
2023/12/31 04:06:42;;;;;;;11.75;5.72;;;6.20;99.90;;;;;;5046741;28;20044;-65
2023/12/31 04:09:10;;;;;;;12.25;6.60;;;6.20;99.90;;;;;;5040819;28;20043;-65
2023/12/31 04:11:35;;;;;;;9.90;5.93;;;6.10;99.90;;;;;;5047082;28;20505;-65
2023/12/31 04:14:01;;;;;;;14.00;6.95;;;6.10;99.90;;;;;;5045283;28;20043;-65
2023/12/31 04:16:27;;;;;;;11.10;6.72;;;6.10;99.90;;;;;;5048862;28;20068;-64
2023/12/31 04:18:52;;;;;;;11.48;7.07;;;6.00;99.90;;;;;;5043166;28;20060;-64
2023/12/31 04:21:18;;;;;;;15.60;7.88;;;6.00;99.90;;;;;;5045709;28;20063;-64
2023/12/31 04:23:43;;;;;;;12.50;7.30;;;6.00;99.90;;;;;;5041582;28;20041;-64
2023/12/31 04:26:09;;;;;;;12.18;7.38;;;6.10;99.90;;;;;;5047491;28;20030;-65
2023/12/31 04:28:34;;;;;;;13.43;8.27;;;6.10;99.90;;;;;;5042025;28;20040;-65
2023/12/31 04:31:02;;;;;;;11.20;8.10;;;6.00;99.90;;;;;;5044434;28;20040;-64
2023/12/31 04:33:28;;;;;;;12.73;7.82;;;6.00;99.90;;;;;;5044224;28;20049;-64
2023/12/31 04:35:53;;;;;;;12.23;7.85;;;6.00;99.90;;;;;;5044361;28;20538;-65
2023/12/31 04:38:19;;;;;;;10.82;7.85;;;6.00;99.90;;;;;;5043817;28;20064;-64
2023/12/31 04:40:44;;;;;;;13.93;7.90;;;6.00;99.90;;;;;;5039445;28;20076;-65
2023/12/31 04:43:10;;;;;;;12.35;6.93;;;6.00;99.90;;;;;;5046558;28;20421;-65
2023/12/31 04:45:35;;;;;;;12.48;7.32;;;6.00;99.90;;;;;;5043394;28;20128;-64
2023/12/31 04:48:01;;;;;;;11.68;6.95;;;6.00;99.90;;;;;;5044252;28;20041;-63
2023/12/31 04:50:27;;;;;;;13.45;8.23;;;6.00;99.90;;;;;;5047855;28;20045;-64
2023/12/31 04:52:52;;;;;;;14.32;6.78;;;5.90;99.90;;;;;;5042696;28;20055;-64
2023/12/31 04:55:18;;;;;;;12.88;7.40;;;5.90;99.90;;;;;;5045372;28;20054;-65
2023/12/31 04:57:43;;;;;;;14.32;6.78;;;5.90;99.90;;;;;;5046630;28;20041;-64
2023/12/31 05:00:09;;;;;;;11.35;6.35;;;5.90;99.90;;;;;;5045059;28;20068;-65
2023/12/31 05:02:35;;;;;;;10.50;6.20;;;5.90;99.90;;;;;;5056706;28;20064;-64
2023/12/31 05:05:02;;;;;;;9.50;6.43;;;5.90;99.90;;;;;;5055958;28;20028;-65
2023/12/31 05:07:28;;;;;;;10.07;6.10;;;5.90;99.90;;;;;;5050440;28;20049;-64
2023/12/31 05:09:53;;;;;;;9.30;5.63;;;5.80;99.90;;;;;;5051911;28;20098;-65
2023/12/31 05:12:19;;;;;;;11.65;6.05;;;5.80;99.90;;;;;;5054550;28;20080;-65
2023/12/31 05:14:44;;;;;;;11.52;5.53;;;5.80;99.90;;;;;;5056908;28;20037;-64
2023/12/31 05:17:10;;;;;;;11.13;6.65;;;5.70;99.90;;;;;;5061194;28;20049;-65
2023/12/31 05:19:36;;;;;;;8.68;4.60;;;5.70;99.90;;;;;;5051478;28;20040;-65
2023/12/31 05:22:01;;;;;;;11.55;5.75;;;5.70;99.90;;;;;;5058922;28;20091;-65
2023/12/31 05:24:27;;;;;;;8.50;5.55;;;5.70;99.90;;;;;;5059541;28;20068;-64
2023/12/31 05:26:52;;;;;;;10.88;5.72;;;5.70;99.90;;;;;;5052383;28;20065;-65
2023/12/31 05:29:18;;;;;;;11.60;6.20;;;5.60;99.90;;;;;;5050770;28;20036;-65
2023/12/31 05:31:43;;;;;;;11.82;5.72;;;5.60;99.90;;;;;;5057642;28;20040;-65
2023/12/31 05:34:09;;;;;;;10.23;6.07;;;5.60;99.90;;;;;;5051704;28;20071;-65
2023/12/31 05:36:34;;;;;;;9.52;5.40;;;5.50;99.90;;;;;;5058024;28;20075;-64
2023/12/31 05:39:00;;;;;;;8.27;4.88;;;5.50;99.90;;;;;;5048831;28;20045;-65
2023/12/31 05:41:26;;;;;;;9.60;5.50;;;5.50;99.90;;;;;;5060681;28;20101;-65
2023/12/31 05:43:51;;;;;;;7.45;5.15;;;5.50;99.90;;;;;;5053921;28;20119;-65
2023/12/31 05:46:17;;;;;;;;;;;5.50;99.90;;;;;;5053842;28;20041;-67
2023/12/31 05:48:42;;;;;;;9.95;6.07;;;5.40;99.90;;;;;;5056912;28;19920;-64
2023/12/31 05:51:09;;;;;;;8.82;5.22;;;5.40;99.90;;;;;;5054139;28;20074;-65
2023/12/31 05:53:34;;;;;;;10.27;5.85;;;5.40;99.90;;;;;;5054919;28;20045;-65
2023/12/31 05:56:00;;;;;;;9.60;5.43;;;5.30;99.90;;;;;;5061490;28;20405;-65
2023/12/31 05:58:26;;;;;;;11.77;4.80;;;5.30;99.90;;;;;;5054230;28;20045;-64
2023/12/31 06:00:51;;;;;;;11.40;4.57;;;5.30;99.90;;;;;;5049015;28;20047;-65
2023/12/31 06:03:17;;;;;;;6.53;4.05;;;5.30;99.90;;;;;;5035269;28;20038;-65
2023/12/31 06:05:43;;;;;;;6.78;4.03;;;5.40;99.90;;;;;;5039110;28;20053;-64
2023/12/31 06:08:09;;;;;;;8.70;3.92;;;5.40;99.90;;;;;;5033882;28;20048;-65
2023/12/31 06:10:34;;;;;;;7.53;3.78;;;5.40;99.90;;;;;;5036098;28;20041;-65
2023/12/31 06:13:00;;;;;;;5.55;3.70;;;5.40;99.90;;;;;;5041384;28;20065;-65
2023/12/31 06:15:25;;;;;;;5.38;3.67;;;5.40;99.90;;;;;;5035692;28;20127;-65
2023/12/31 06:17:51;;;;;;;5.20;3.40;;;5.40;99.90;;;;;;5031116;28;20163;-65
2023/12/31 06:20:16;;;;;;;6.32;3.65;;;5.40;99.90;;;;;;5042449;28;20229;-64
2023/12/31 06:22:42;;;;;;;6.65;3.45;;;5.40;99.90;;;;;;5029175;28;20037;-64
2023/12/31 06:25:08;;;;;;;7.88;3.58;;;5.40;99.90;;;;;;5027327;28;20530;-64
2023/12/31 06:27:36;;;;;;;3.80;2.90;;;5.50;99.90;;;;;;5034670;28;20550;-65
2023/12/31 06:30:02;;;;;;;6.80;3.50;;;5.50;99.90;;;;;;5038384;28;20037;-65
2023/12/31 06:32:28;;;;;;;9.10;4.45;;;5.50;99.90;;;;;;5047554;28;20044;-65
2023/12/31 06:34:53;;;;;;;6.70;3.88;;;5.50;99.90;;;;;;5051536;28;20047;-64
2023/12/31 06:37:20;;;;;;;5.47;3.40;;;5.60;99.90;;;;;;5048715;28;20045;-66
2023/12/31 06:39:46;;;;;;;6.75;3.63;;;5.60;99.90;;;;;;5053458;28;20496;-64
2023/12/31 06:42:12;;;;;;;7.47;3.75;;;5.60;99.90;;;;;;5048321;28;20043;-64
2023/12/31 06:44:37;;;;;;;5.80;3.30;;;5.70;99.90;;;;;;5053805;28;20123;-65
2023/12/31 06:47:03;;;;;;;6.00;3.50;;;5.70;99.90;;;;;;5053277;28;20048;-64
2023/12/31 06:49:29;;;;;;;6.13;3.88;;;5.70;99.90;;;;;;5050245;28;20048;-64
2023/12/31 06:51:54;;;;;;;6.80;3.95;;;5.80;99.90;;;;;;5059560;28;20111;-64
2023/12/31 06:54:20;;;;;;;7.38;4.10;;;5.80;99.90;;;;;;5051754;28;20052;-64
2023/12/31 06:56:45;;;;;;;7.95;3.90;;;5.80;99.90;;;;;;5049361;28;20104;-65
2023/12/31 06:59:11;;;;;;;4.82;3.60;;;5.80;99.90;;;;;;5050237;28;20032;-64
2023/12/31 07:01:36;;;;;;;9.07;3.53;;;5.90;99.90;;;;;;5053674;28;20037;-64
2023/12/31 07:04:03;;;;;;;6.13;3.80;;;5.90;99.90;;;;;;5051163;28;20060;-65
2023/12/31 07:06:29;;;;;;;5.80;3.50;;;5.90;99.90;;;;;;5051814;28;20044;-65
2023/12/31 07:08:54;;;;;;;7.57;3.47;;;5.90;99.90;;;;;;5049840;28;20144;-66
2023/12/31 07:11:20;;;;;;;4.78;3.28;;;6.00;99.90;;;;;;5058576;28;20120;-64
2023/12/31 07:13:45;;;;;;;5.10;3.45;;;6.00;99.90;;;;;;5056456;28;20575;-64
2023/12/31 07:16:11;;;;;;;4.82;3.13;;;6.00;99.90;;;;;;5054252;28;20032;-65
2023/12/31 07:18:36;;;;;;;5.70;3.65;;;6.00;99.90;;;;;;5047113;28;20048;-65
2023/12/31 07:21:04;;;;;;;4.95;3.35;;;6.00;99.90;;;;;;5049094;28;20043;-65
2023/12/31 07:23:29;;;;;;;7.63;3.10;;;6.00;99.90;;;;;;5053877;28;20052;-63
2023/12/31 07:25:55;;;;;;;6.30;3.10;;;6.00;99.90;;;;;;5054280;28;20046;-63
2023/12/31 07:28:20;;;;;;;4.75;3.03;;;6.10;99.90;;;;;;5054115;28;20068;-65
2023/12/31 07:30:46;;;;;;;5.25;3.13;;;6.10;99.90;;;;;;5059940;28;20499;-67
2023/12/31 07:33:12;;;;;;;6.90;2.90;;;6.10;99.90;;;;;;5053352;28;20083;-65
2023/12/31 07:35:38;;;;;;;4.00;2.55;;;6.20;99.90;;;;;;5051898;28;20048;-64
2023/12/31 07:38:05;;;;;;;4.50;2.95;;;6.10;99.90;;;;;;5065991;28;20633;-64
2023/12/31 07:40:31;;;;;;;6.68;3.30;;;6.20;99.90;;;;;;5049785;28;20683;-65
2023/12/31 07:42:57;;;;;;;5.00;2.90;;;6.20;99.90;;;;;;5057861;28;20067;-64
2023/12/31 07:45:22;;;;;;;;;;;6.20;99.90;;;;;;5051145;28;20079;-65
2023/12/31 07:47:48;;;;;;;5.40;2.55;;;6.20;99.90;;;;;;5059557;28;20788;-64
2023/12/31 07:50:14;;;;;;;3.55;2.65;;;6.20;99.90;;;;;;5049854;28;20037;-64
2023/12/31 07:52:40;;;;;;;4.72;3.00;;;6.20;99.90;;;;;;5050829;28;20033;-65
2023/12/31 07:55:08;;;;;;;;;;;6.20;99.90;;;;;;5055395;28;20045;-65
2023/12/31 07:57:34;;;;;;;5.07;2.50;;;6.20;99.90;;;;;;5050560;28;19920;-64
2023/12/31 08:00:00;;;;;;;4.30;2.30;;;6.20;99.90;;;;;;5049216;28;20385;-65
2023/12/31 08:02:26;;;;;;;;;;;6.20;99.90;;;;;;5047780;28;20041;-64
2023/12/31 08:04:51;;;;;;;3.85;2.65;;;6.20;99.90;;;;;;5048357;28;19929;-66
2023/12/31 08:07:17;;;;;;;4.30;2.80;;;6.20;99.90;;;;;;5047432;28;20061;-65
2023/12/31 08:09:43;;;;;;;7.20;3.13;;;6.10;99.90;;;;;;5048044;28;20835;-64
2023/12/31 08:12:08;;;;;;;4.75;3.53;;;6.00;99.90;;;;;;5040361;28;20045;-65
2023/12/31 08:14:34;;;;;;;8.82;3.30;;;6.00;99.90;;;;;;5048084;28;20672;-65
2023/12/31 08:16:59;;;;;;;5.38;2.80;;;5.90;99.90;;;;;;5042510;28;20408;-65
2023/12/31 08:19:25;;;;;;;4.38;2.95;;;5.90;99.90;;;;;;5048098;28;20045;-65
2023/12/31 08:21:50;;;;;;;7.18;3.38;;;5.90;99.90;;;;;;5047615;28;20048;-64
2023/12/31 08:24:20;;;;;;;5.32;3.38;;;5.90;99.90;;;;;;5044953;28;20041;-64
2023/12/31 08:26:45;;;;;;;4.28;3.05;;;5.90;99.90;;;;;;5044440;28;20508;-64
2023/12/31 08:29:11;;;;;;;5.95;3.30;;;5.90;99.90;;;;;;5050701;28;20029;-65
2023/12/31 08:31:37;;;;;;;8.48;3.30;;;5.80;99.90;;;;;;5043609;28;20037;-64
2023/12/31 08:34:02;;;;;;;6.35;3.35;;;5.80;99.90;;;;;;5038642;28;20577;-65
2023/12/31 08:36:28;;;;;;;;;;;5.80;99.90;;;;;;5036505;28;20037;-64
2023/12/31 08:38:54;;;;;;;5.20;2.90;;;5.80;99.90;;;;;;5036567;28;19917;-63
2023/12/31 08:41:20;;;;;;;;;;;5.80;99.90;;;;;;5034830;28;20041;-62
2023/12/31 08:43:46;;;;;;;5.83;3.27;;;5.80;99.90;;;;;;5032203;28;19924;-63
2023/12/31 08:46:12;;;;;;;7.00;3.28;;;5.80;99.90;;;;;;5032929;28;20041;-63
2023/12/31 08:48:37;;;;;;;5.95;3.33;;;5.80;99.90;;;;;;5032122;28;20500;-62
2023/12/31 08:51:03;;;;;;;4.88;3.33;;;5.80;99.90;;;;;;5031325;28;20037;-67
2023/12/31 08:53:29;;;;;;;6.00;3.03;;;5.80;99.90;;;;;;5035452;28;20064;-62
2023/12/31 08:55:55;;;;;;;6.22;3.83;;;5.80;99.90;;;;;;5035235;28;20082;-64
2023/12/31 08:58:20;;;;;;;7.63;3.50;;;5.90;99.90;;;;;;5036191;28;20522;-65
2023/12/31 09:00:46;;;;;;;7.63;3.80;;;5.90;99.90;;;;;;5032270;28;20038;-65
2023/12/31 09:03:12;;;;;;;6.45;3.45;;;5.90;99.90;;;;;;5053469;28;20052;-64
2023/12/31 09:05:38;;;;;;;6.53;3.60;;;6.00;99.90;;;;;;5055632;28;20086;-66
2023/12/31 09:08:04;;;;;;;9.32;3.80;;;6.10;99.90;;;;;;5052651;28;20102;-66
2023/12/31 09:10:30;;;;;;;6.97;4.00;;;6.10;99.90;;;;;;5037775;28;20519;-67
2023/12/31 09:12:55;;;;;;;5.05;3.05;;;6.20;99.90;;;;;;5053875;28;20044;-68
2023/12/31 09:15:22;;;;;;;6.40;4.18;;;6.30;99.90;;;;;;5051639;28;20045;-65
2023/12/31 09:17:47;;;;;;;6.60;3.80;;;6.30;99.90;;;;;;5050179;28;20658;-65
2023/12/31 09:20:13;;;;;;;7.10;4.00;;;6.30;99.90;;;;;;5052371;28;20048;-65
2023/12/31 09:22:39;;;;;;;8.38;3.92;;;6.40;99.90;;;;;;5057400;28;20048;-65
2023/12/31 09:25:06;;;;;;;5.38;3.70;;;6.40;99.90;;;;;;5051477;28;20047;-66
2023/12/31 09:27:32;;;;;;;8.82;4.18;;;6.40;99.90;;;;;;5056974;28;20052;-65
2023/12/31 09:29:58;;;;;;;6.10;3.45;;;6.50;99.90;;;;;;5058965;28;20040;-66
2023/12/31 09:32:24;;;;;;;5.00;3.28;;;6.50;99.90;;;;;;5058838;28;20040;-64
2023/12/31 09:34:49;;;;;;;6.25;3.58;;;6.50;99.90;;;;;;5051357;28;20041;-64
2023/12/31 09:37:18;;;;;;;;;;;6.60;99.90;;;;;;5056802;28;20063;-65
2023/12/31 09:39:45;;;;;;;5.60;3.45;;;6.60;99.90;;;;;;5058990;28;19924;-64
2023/12/31 09:42:12;;;;;;;5.40;3.65;;;6.60;99.90;;;;;;5055153;28;20041;-65
2023/12/31 09:44:40;;;;;;;5.40;3.28;;;6.70;99.90;;;;;;5053410;28;20048;-65
2023/12/31 09:47:07;;;;;;;6.47;4.05;;;6.60;99.90;;;;;;5053307;28;20052;-65
2023/12/31 09:49:34;;;;;;;7.07;4.00;;;6.70;99.90;;;;;;5053688;28;20054;-66
2023/12/31 09:52:08;;;;;;;7.40;4.07;;;6.70;99.90;;;;;;5049111;28;20060;-66
2023/12/31 09:54:39;;;;;;;6.72;4.32;;;6.70;99.90;;;;;;5056712;28;20127;-66
2023/12/31 09:57:05;;;;;;;8.82;4.45;;;6.80;99.90;;;;;;5049221;28;20049;-66
2023/12/31 09:59:31;;;;;;;8.27;4.20;;;6.80;99.90;;;;;;5053881;28;20051;-65
2023/12/31 10:02:05;;;;;;;7.97;4.15;;;6.80;99.90;;;;;;5045397;28;20069;-66
2023/12/31 10:04:31;;;;;;;5.60;3.33;;;6.80;99.90;;;;;;5057741;28;20041;-65
2023/12/31 10:06:58;;;;;;;9.77;3.65;;;6.80;99.90;;;;;;5057179;28;20179;-66
2023/12/31 10:09:28;;;;;;;8.73;4.88;;;6.80;99.90;;;;;;5060474;28;20036;-66
2023/12/31 10:11:57;;;;;;;6.50;3.72;;;6.90;99.90;;;;;;5049282;28;20707;-66
2023/12/31 10:14:25;;;;;;;6.88;4.07;;;6.90;99.90;;;;;;5057187;28;20082;-66
2023/12/31 10:16:51;;;;;;;8.63;4.35;;;6.90;99.90;;;;;;5059941;28;20079;-66
2023/12/31 10:19:16;;;;;;;10.38;4.22;;;6.90;99.90;;;;;;5060858;28;20040;-65
2023/12/31 10:21:42;;;;;;;;;;;6.90;99.90;;;;;;5059679;28;20131;-65
2023/12/31 10:24:08;;;;;;;5.25;3.80;;;7.00;99.90;;;;;;5060995;28;19917;-65
2023/12/31 10:26:34;;;;;;;6.53;3.45;;;7.00;99.90;;;;;;5059018;28;20454;-66
2023/12/31 10:29:00;;;;;;;10.00;4.32;;;7.00;99.90;;;;;;5060979;28;20041;-66
2023/12/31 10:31:27;;;;;;;8.38;3.70;;;7.00;99.90;;;;;;5066768;28;20097;-65
2023/12/31 10:33:52;;;;;;;7.30;3.50;;;7.00;99.90;;;;;;5061154;28;20044;-65
2023/12/31 10:36:23;;;;;;;7.53;4.00;;;7.00;99.90;;;;;;5072629;28;20640;-65
2023/12/31 10:38:50;;;;;;;4.90;3.70;;;7.00;99.90;;;;;;5064152;28;20096;-65
2023/12/31 10:41:20;;;;;;;5.75;3.85;;;7.10;99.90;;;;;;5066562;28;20360;-66
2023/12/31 10:43:47;;;;;;;10.13;4.13;;;7.10;99.90;;;;;;5056741;28;20045;-65
2023/12/31 10:46:14;;;;;;;6.75;3.78;;;7.10;99.90;;;;;;5059439;28;20043;-65
2023/12/31 10:48:47;;;;;;;5.15;3.75;;;7.10;99.90;;;;;;5064626;28;20049;-66
2023/12/31 10:51:13;;;;;;;6.07;3.60;;;7.10;99.90;;;;;;5061194;28;20053;-65
2023/12/31 10:53:41;;;;;;;7.07;3.85;;;7.20;99.90;;;;;;5050422;28;20466;-64
2023/12/31 10:56:06;;;;;;;4.75;3.33;;;7.20;99.90;;;;;;5061607;28;20053;-65
2023/12/31 10:58:32;;;;;;;5.45;3.70;;;7.20;99.90;;;;;;5053906;28;20059;-65
2023/12/31 11:00:59;;;;;;;6.80;3.90;;;7.20;99.90;;;;;;5056037;28;20040;-64
2023/12/31 11:03:26;;;;;;;8.10;4.30;;;7.20;99.90;;;;;;5063149;28;20049;-65
2023/12/31 11:05:52;;;;;;;6.95;3.88;;;7.20;99.90;;;;;;5050564;28;20037;-64
2023/12/31 11:08:18;;;;;;;6.50;4.00;;;7.20;99.90;;;;;;5058148;28;20508;-65
2023/12/31 11:10:44;;;;;;;6.05;4.10;;;7.10;99.90;;;;;;5057191;28;20043;-65
2023/12/31 11:13:12;;;;;;;9.30;4.05;;;7.20;99.90;;;;;;5061975;28;20041;-65
2023/12/31 11:15:39;;;;;;;9.00;3.97;;;7.20;99.90;;;;;;5059945;28;20064;-67
2023/12/31 11:18:08;;;;;;;5.35;3.78;;;7.20;99.90;;;;;;5053582;28;20045;-65
2023/12/31 11:20:52;;;;;;;6.22;4.03;;;7.20;99.90;;;;;;5058601;28;20052;-66
2023/12/31 11:23:37;;;;;;;6.57;3.45;;;7.20;99.90;;;;;;5063151;28;20411;-65
2023/12/31 11:26:05;;;;;;;8.18;3.55;;;7.30;99.90;;;;;;5064032;28;20044;-64
2023/12/31 11:28:32;;;;;;;4.88;3.00;;;7.30;99.90;;;;;;5059050;28;20040;-65
2023/12/31 11:30:59;;;;;;;6.45;3.28;;;7.40;99.90;;;;;;5050701;28;20400;-65
2023/12/31 11:33:27;;;;;;;6.60;3.15;;;7.40;99.90;;;;;;5044166;28;20048;-67
2023/12/31 11:35:56;;;;;;;5.28;3.03;;;7.40;99.90;;;;;;5061239;28;20132;-65
2023/12/31 11:38:21;;;;;;;4.45;2.60;;;7.40;99.90;;;;;;5059200;28;20488;-65
2023/12/31 11:40:48;;;;;;;5.80;2.95;;;7.40;99.90;;;;;;5062498;28;20040;-65
2023/12/31 11:43:16;;;;;;;5.75;3.20;;;7.40;99.90;;;;;;5053661;28;20044;-65
2023/12/31 11:45:44;;;;;;;4.88;2.60;;;7.40;99.90;;;;;;5054716;28;20101;-66
2023/12/31 11:48:25;;;;;;;3.78;2.63;;;7.40;99.90;;;;;;5053095;28;20041;-65
2023/12/31 11:51:01;;;;;;;4.25;2.97;;;7.40;99.90;;;;;;5052014;28;20059;-65
2023/12/31 11:53:27;;;;;;;6.38;3.28;;;7.40;99.90;;;;;;5054237;28;20071;-65
2023/12/31 11:55:58;;;;;;;6.43;3.58;;;7.40;99.90;;;;;;5052781;28;20416;-67
2023/12/31 11:58:30;;;;;;;6.93;3.30;;;7.30;99.90;;;;;;5049077;28;20072;-65
2023/12/31 12:00:56;;;;;;;4.35;2.88;;;7.30;99.90;;;;;;5054390;28;20143;-65
2023/12/31 12:03:21;;;;;;;3.42;2.50;;;7.30;99.90;;;;;;5054429;28;20045;-65
2023/12/31 12:05:51;;;;;;;5.90;2.55;;;7.20;99.90;;;;;;5051252;28;20047;-65
2023/12/31 12:08:17;;;;;;;4.90;2.95;;;7.20;99.90;;;;;;5056326;28;20040;-65
2023/12/31 12:10:43;;;;;;;3.47;2.50;;;7.20;99.90;;;;;;5056317;28;20041;-65
2023/12/31 12:13:10;;;;;;;5.13;2.60;;;7.20;99.90;;;;;;5054308;28;20029;-65
2023/12/31 12:15:36;;;;;;;4.22;2.38;;;7.10;99.90;;;;;;5058333;28;20046;-65
2023/12/31 12:18:22;;;;;;;6.85;2.33;;;7.10;99.90;;;;;;5054979;28;20028;-65
2023/12/31 12:20:48;;;;;;;9.63;3.05;;;7.10;99.90;;;;;;5052481;28;20045;-65
2023/12/31 12:23:21;;;;;;;5.82;2.40;;;7.10;99.90;;;;;;5055332;28;20033;-65
2023/12/31 12:25:47;;;;;;;7.90;2.60;;;7.10;99.90;;;;;;5060995;28;20029;-65
2023/12/31 12:28:14;;;;;;;4.40;2.13;;;7.10;99.90;;;;;;5055510;28;20037;-64
2023/12/31 12:30:41;;;;;;;7.70;2.28;;;7.10;99.90;;;;;;5059281;28;20041;-64
2023/12/31 12:33:07;;;;;;;2.85;1.80;;;7.20;99.90;;;;;;5058712;28;20044;-65
2023/12/31 12:35:36;;;;;;;3.80;2.10;;;7.10;99.90;;;;;;5049700;28;20493;-65
2023/12/31 12:38:02;;;;;;;4.35;1.88;;;7.20;99.90;;;;;;5055350;28;20041;-65
2023/12/31 12:40:29;;;;;;;7.63;1.88;;;7.20;99.90;;;;;;5058114;28;20063;-64
2023/12/31 12:42:54;;;;;;;4.60;2.13;;;7.30;99.90;;;;;;5059256;28;20106;-65
2023/12/31 12:45:22;;;;;;;7.18;1.92;;;7.30;99.90;;;;;;5054864;28;20496;-65
2023/12/31 12:47:48;;;;;;;5.50;1.92;;;7.20;99.90;;;;;;5055573;28;20052;-65
2023/12/31 12:50:14;;;;;;;3.78;1.65;;;7.20;99.90;;;;;;5055197;28;20039;-65
2023/12/31 12:52:40;;;;;;;8.25;1.80;;;7.30;99.90;;;;;;5053346;28;20049;-65
2023/12/31 12:55:06;;;;;;;3.45;1.23;;;7.20;99.90;;;;;;5060056;28;20042;-65